Aérodrome :
LOGIN :

S'inscrire | Disclaimer

   EN    FR    IT 

 










Légende :    VFR   VFR Marginal   IFR   IFR Intensif   IFR Très Intensif
Visi : 
Plafond : 
>= 8 km
>= 3000ft
5 à 8 km
1000 à 3000 ft
1500m à 5 km
500 à 1000 ft
800 à 1500m
200 à 500 ft
< 800m
< 200 ft
Symboles :   Orages  Brouillard  Fortes neiges  Fortes précipitations  Vent > 20 kt
SIGMETs :   Divers  Orages  Givrage  Turbulence  Onde Orograph.  Cendres Volcan.






- Altitude de l'aérodrome : 1234 ft
- Code IATA : LUX


ELLX - Luxembourg Findel

DERNIER METAR :
  • 100450Z 20010KT 170V230 9999 FEW010 BKN048 15/11 Q1005 NOSIG

METARs EXPIRÉS :
  • 100420Z 21012KT 9999 FEW010 BKN045 15/10 Q1005 NOSIG
  • 100350Z 21013KT 9999 -RA BKN048 15/10 Q1004 NOSIG
  • 100320Z 20017G30KT 9999 -RA BKN048 17/09 Q1004 NOSIG
  • 100250Z 22017KT 170V240 CAVOK 18/09 Q1003 NOSIG
  • 100220Z AUTO 21015G28KT 180V250 9999 -SHRA OVC081/// 18/09 Q1003 NOSIG

TAF TAF ELLX
Valide du 10 à 00h jusqu'au 11 à 06h UTC


092300Z 1000/1106 19010KT CAVOK
TEMPO 1000/1014 20015G25KT
PROB30
TEMPO 1000/1004 20018G30KT
TEMPO 1010/1014 FEW025TCU
PROB40
TEMPO 1022/1104 RA
ATIS : +352 4798 27300
Météo : +352 4798 27010 / 27050



MET'MAP, la Météo Aéronautique d'un coup d'oeil ! - Copyright ORBIFLY Décembre 2007 - Disclaimer

ORBIFLY MET'MAP TEAM :

Programmation & Développement : Alexandra Zaïnal
Sur une idée originale de : Baudouin d'Aumeries
Assistance à la programmation : Marc-Olivier Méhu
Soutien technique & logistique : Manuel Goepfert

Contact : metmap@orbifly.com




SOURCES & CREDITS :

   NOAA